createdAt,value
2023-06-10T00:01:38.042Z,3.20
2023-06-10T00:06:45.103Z,2.90
2023-06-10T00:11:50.809Z,2.60
2023-06-10T00:16:57.274Z,3.73
2023-06-10T00:22:02.823Z,3.30
2023-06-10T00:27:08.735Z,2.43
2023-06-10T00:32:14.369Z,2.90
2023-06-10T00:37:19.834Z,3.50
2023-06-10T00:42:25.996Z,3.70
2023-06-10T00:47:32.496Z,3.60
2023-06-10T00:52:38.625Z,2.67
2023-06-10T00:57:45.660Z,3.40
2023-06-10T01:02:52.829Z,2.60
2023-06-10T01:08:02.150Z,3.17
2023-06-10T01:13:13.609Z,2.80
2023-06-10T01:18:19.152Z,2.73
2023-06-10T01:23:25.357Z,3.13
2023-06-10T01:28:53.268Z,3.10
2023-06-10T01:33:58.870Z,3.13
2023-06-10T01:39:09.182Z,2.80
2023-06-10T01:44:16.437Z,2.70
2023-06-10T01:49:23.832Z,3.23
2023-06-10T01:54:29.293Z,2.77
2023-06-10T01:59:34.811Z,2.87
2023-06-10T02:04:40.302Z,2.90
2023-06-10T02:09:45.827Z,2.90
2023-06-10T02:14:51.958Z,2.40
2023-06-10T02:19:58.238Z,2.57
2023-06-10T02:25:05.121Z,2.87
2023-06-10T02:30:11.827Z,2.47
2023-06-10T02:35:18.648Z,3.57
2023-06-10T02:40:24.198Z,2.67
2023-06-10T02:45:29.926Z,3.17
2023-06-10T02:50:35.485Z,2.97
2023-06-10T02:55:42.232Z,2.73
2023-06-10T03:00:48.354Z,2.93
2023-06-10T03:05:53.848Z,2.43
2023-06-10T03:10:59.273Z,2.70
2023-06-10T03:16:05.885Z,2.70
2023-06-10T03:21:11.595Z,2.53
2023-06-10T03:26:17.978Z,2.87
2023-06-10T03:31:23.545Z,2.70
2023-06-10T03:36:30.578Z,2.70
2023-06-10T03:41:36.170Z,2.60
2023-06-10T03:46:42.075Z,2.63
2023-06-10T03:51:47.728Z,2.70
2023-06-10T03:56:56.382Z,2.37
2023-06-10T04:02:03.133Z,2.43
2023-06-10T04:07:09.460Z,2.30
2023-06-10T04:12:15.829Z,2.40
2023-06-10T04:17:21.445Z,2.47
2023-06-10T04:22:27.444Z,2.67
2023-06-10T04:27:32.924Z,3.20
2023-06-10T04:32:38.417Z,2.80
2023-06-10T04:37:43.866Z,2.77
2023-06-10T04:42:49.270Z,2.53
2023-06-10T04:47:56.848Z,2.40
2023-06-10T04:53:02.310Z,2.40
2023-06-10T04:58:07.841Z,2.73
2023-06-10T05:03:13.344Z,2.47
2023-06-10T05:08:19.101Z,2.30
2023-06-10T05:13:24.573Z,2.90
2023-06-10T05:18:31.224Z,2.37
2023-06-10T05:23:36.624Z,1.83
2023-06-10T05:28:47.916Z,2.03
2023-06-10T05:33:53.299Z,3.30
2023-06-10T05:38:59.861Z,1.80
2023-06-10T05:44:05.751Z,2.67
2023-06-10T05:49:11.769Z,2.43
2023-06-10T05:54:17.206Z,1.82
2023-06-10T05:59:24.407Z,1.52
2023-06-10T06:04:31.075Z,2.17
2023-06-10T06:09:36.590Z,1.95
2023-06-10T06:14:42.022Z,2.05
2023-06-10T06:19:49.080Z,2.02
2023-06-10T06:24:54.603Z,1.80
2023-06-10T06:30:01.448Z,1.50
2023-06-10T06:35:09.794Z,1.87
2023-06-10T06:40:15.736Z,1.60
2023-06-10T06:45:23.928Z,1.82
2023-06-10T06:50:30.178Z,2.25
2023-06-10T06:55:36.622Z,1.70
2023-06-10T07:00:42.152Z,1.87
2023-06-10T07:05:48.421Z,2.00
2023-06-10T07:10:54.513Z,1.45
2023-06-10T07:16:00.395Z,2.15
2023-06-10T07:21:05.991Z,2.75
2023-06-10T07:26:14.949Z,2.00
2023-06-10T07:31:20.952Z,2.17
2023-06-10T07:36:28.056Z,2.05
2023-06-10T07:41:39.563Z,1.82
2023-06-10T07:46:45.279Z,1.95
2023-06-10T07:51:50.946Z,2.30
2023-06-10T07:56:56.536Z,1.75
2023-06-10T08:02:02.159Z,1.98
2023-06-10T08:07:08.741Z,1.95
2023-06-10T08:12:14.297Z,1.50
2023-06-10T08:17:19.885Z,1.72
2023-06-10T08:22:25.779Z,2.00
2023-06-10T08:27:32.676Z,1.67
2023-06-10T08:32:53.170Z,2.55
2023-06-10T08:38:04.798Z,1.85
2023-06-10T08:43:28.585Z,2.12
2023-06-10T08:48:36.807Z,1.92
2023-06-10T08:53:49.445Z,2.12
2023-06-10T08:58:59.689Z,2.00
2023-06-10T14:20:32.680Z,2.35
2023-06-10T14:25:38.293Z,1.55
2023-06-10T14:30:43.624Z,1.20
2023-06-10T14:35:49.158Z,1.35
2023-06-10T14:40:54.522Z,1.07
2023-06-10T14:46:00.034Z,1.22
2023-06-10T14:51:05.551Z,2.92
2023-06-10T14:56:11.964Z,1.42
2023-06-10T15:01:17.216Z,1.25
2023-06-10T15:06:24.264Z,1.35
2023-06-10T15:11:29.797Z,1.57
2023-06-10T15:16:35.245Z,0.70
2023-06-10T15:21:40.801Z,1.10
2023-06-10T15:26:46.316Z,1.40
2023-06-10T15:31:51.740Z,1.00
2023-06-10T15:36:58.244Z,1.10
2023-06-10T15:42:04.288Z,1.30
2023-06-10T15:47:09.761Z,1.10
2023-06-10T15:52:15.214Z,1.30
2023-06-10T15:57:22.862Z,1.05
2023-06-10T16:02:28.061Z,1.17
2023-06-10T16:07:33.403Z,0.93
2023-06-10T16:12:39.936Z,1.10
2023-06-10T16:17:48.542Z,1.67
2023-06-10T16:22:56.122Z,1.27
2023-06-10T16:28:03.190Z,0.90
2023-06-10T16:33:08.708Z,1.05
2023-06-10T16:38:14.079Z,1.47
2023-06-10T16:43:19.405Z,1.20
2023-06-10T16:48:24.910Z,1.20
2023-06-10T16:53:30.401Z,1.17
2023-06-10T16:58:35.681Z,0.85
2023-06-10T17:03:41.794Z,1.27
2023-06-10T17:08:47.423Z,1.10
2023-06-10T17:13:52.861Z,0.95
2023-06-10T17:18:58.437Z,1.07
2023-06-10T17:24:04.861Z,1.17
2023-06-10T17:29:10.326Z,1.00
2023-06-10T17:34:15.821Z,0.72
2023-06-10T17:39:21.328Z,1.32
2023-06-10T17:44:28.274Z,1.57
2023-06-10T17:49:34.802Z,0.85
2023-06-10T17:54:40.055Z,1.00
2023-06-10T17:59:45.693Z,1.00
2023-06-10T18:04:51.089Z,2.45
2023-06-10T18:09:56.485Z,1.17
2023-06-10T18:15:01.785Z,0.95
2023-06-10T18:20:08.539Z,1.52
2023-06-10T18:25:14.434Z,1.00
2023-06-10T18:30:19.917Z,1.65
2023-06-10T18:35:25.450Z,1.10
2023-06-10T18:40:30.826Z,1.00
2023-06-10T18:45:36.347Z,1.00
2023-06-10T18:50:41.851Z,1.10
2023-06-10T18:55:50.049Z,1.00
2023-06-10T19:00:59.491Z,1.10
2023-06-10T19:06:05.173Z,1.17
2023-06-10T19:11:10.572Z,1.82
2023-06-10T19:16:16.158Z,1.37
2023-06-10T19:21:21.973Z,1.03
2023-06-10T19:26:28.137Z,1.07
2023-06-10T19:31:33.685Z,1.40
2023-06-10T19:36:39.176Z,0.73
2023-06-10T19:41:44.505Z,1.23
2023-06-10T19:46:49.998Z,1.03
2023-06-10T19:51:55.891Z,2.73
2023-06-10T19:57:02.516Z,1.47
2023-06-10T20:02:08.878Z,0.70
2023-06-10T20:07:14.524Z,1.20
2023-06-10T20:12:20.034Z,1.30
2023-06-10T20:17:25.451Z,1.30
2023-06-10T20:22:30.902Z,1.63
2023-06-10T20:27:36.551Z,1.20
2023-06-10T20:32:42.020Z,1.27
2023-06-10T20:37:54.051Z,1.40
2023-06-10T20:42:59.544Z,1.47
2023-06-10T20:48:06.667Z,1.80
2023-06-10T20:53:12.266Z,1.70
2023-06-10T20:58:17.818Z,0.90
2023-06-10T21:03:23.429Z,1.13
2023-06-10T21:08:28.906Z,1.40
2023-06-10T21:13:34.521Z,1.33
2023-06-10T21:18:40.095Z,1.83
2023-06-10T21:23:46.404Z,1.23
2023-06-10T21:28:51.871Z,1.40
2023-06-10T21:33:57.113Z,1.07
2023-06-10T21:39:02.427Z,1.20
2023-06-10T21:44:07.952Z,1.10
2023-06-10T21:49:13.726Z,1.10
2023-06-10T21:54:19.233Z,1.37
2023-06-10T21:59:24.860Z,1.00
2023-06-10T22:04:30.279Z,1.33
2023-06-10T22:09:36.168Z,1.20
2023-06-10T22:14:41.692Z,0.97
2023-06-10T22:19:47.149Z,1.47
2023-06-10T22:24:59.074Z,0.97
2023-06-10T22:30:05.174Z,1.13
2023-06-10T22:35:13.082Z,1.33
2023-06-10T22:40:18.833Z,0.97
2023-06-10T22:45:25.226Z,0.90
2023-06-10T22:50:30.782Z,1.10
2023-06-10T22:55:36.212Z,1.20
2023-06-10T23:00:41.713Z,1.13
2023-06-10T23:05:47.109Z,1.67
2023-06-10T23:10:52.594Z,1.00
2023-06-10T23:15:58.014Z,0.90
2023-06-10T23:21:03.599Z,1.03
2023-06-10T23:26:09.614Z,0.90
2023-06-10T23:31:15.602Z,1.07
2023-06-10T23:36:21.896Z,1.03
2023-06-10T23:41:27.970Z,1.40
2023-06-10T23:46:38.479Z,1.03
2023-06-10T23:51:43.908Z,1.30
2023-06-10T23:56:49.413Z,1.10
